sensor_id;sensor_type;location;lat;lon;timestamp;P1;durP1;ratioP1;P2;durP2;ratioP2
45206;SDS011;30950;53.086;21.576;2023-02-04T00:00:21;20.98;;;10.00;;
45206;SDS011;30950;53.086;21.576;2023-02-04T00:03:09;21.63;;;11.00;;
45206;SDS011;30950;53.086;21.576;2023-02-04T00:05:36;22.00;;;10.23;;
45206;SDS011;30950;53.086;21.576;2023-02-04T00:08:03;25.40;;;11.25;;
45206;SDS011;30950;53.086;21.576;2023-02-04T00:10:31;27.02;;;11.63;;
45206;SDS011;30950;53.086;21.576;2023-02-04T00:12:59;18.38;;;9.57;;
45206;SDS011;30950;53.086;21.576;2023-02-04T00:15:27;17.45;;;10.20;;
45206;SDS011;30950;53.086;21.576;2023-02-04T00:17:54;12.60;;;6.90;;
45206;SDS011;30950;53.086;21.576;2023-02-04T00:20:22;10.40;;;5.32;;
45206;SDS011;30950;53.086;21.576;2023-02-04T00:22:49;7.40;;;5.30;;
45206;SDS011;30950;53.086;21.576;2023-02-04T00:25:17;13.40;;;6.55;;
45206;SDS011;30950;53.086;21.576;2023-02-04T00:27:44;10.65;;;6.28;;
45206;SDS011;30950;53.086;21.576;2023-02-04T00:30:12;11.27;;;7.20;;
45206;SDS011;30950;53.086;21.576;2023-02-04T00:32:40;11.13;;;5.80;;
45206;SDS011;30950;53.086;21.576;2023-02-04T00:35:08;10.45;;;6.60;;
45206;SDS011;30950;53.086;21.576;2023-02-04T00:37:35;10.00;;;6.38;;
45206;SDS011;30950;53.086;21.576;2023-02-04T00:40:03;9.43;;;5.85;;
45206;SDS011;30950;53.086;21.576;2023-02-04T00:42:30;9.80;;;6.50;;
45206;SDS011;30950;53.086;21.576;2023-02-04T00:44:58;10.02;;;6.55;;
45206;SDS011;30950;53.086;21.576;2023-02-04T00:47:25;10.65;;;5.90;;
45206;SDS011;30950;53.086;21.576;2023-02-04T00:49:55;10.63;;;5.90;;
45206;SDS011;30950;53.086;21.576;2023-02-04T00:52:22;8.63;;;5.53;;
45206;SDS011;30950;53.086;21.576;2023-02-04T00:54:49;9.52;;;5.70;;
45206;SDS011;30950;53.086;21.576;2023-02-04T00:57:17;9.32;;;5.32;;
45206;SDS011;30950;53.086;21.576;2023-02-04T00:59:45;9.95;;;5.82;;
45206;SDS011;30950;53.086;21.576;2023-02-04T01:02:12;8.18;;;5.40;;
45206;SDS011;30950;53.086;21.576;2023-02-04T01:04:40;7.55;;;5.45;;
45206;SDS011;30950;53.086;21.576;2023-02-04T01:07:07;8.70;;;5.53;;
45206;SDS011;30950;53.086;21.576;2023-02-04T01:09:34;9.80;;;6.07;;
45206;SDS011;30950;53.086;21.576;2023-02-04T01:12:03;8.88;;;5.60;;
45206;SDS011;30950;53.086;21.576;2023-02-04T01:14:30;12.05;;;5.97;;
45206;SDS011;30950;53.086;21.576;2023-02-04T01:16:57;13.55;;;6.10;;
45206;SDS011;30950;53.086;21.576;2023-02-04T01:19:25;10.23;;;6.18;;
45206;SDS011;30950;53.086;21.576;2023-02-04T01:21:53;6.85;;;4.88;;
45206;SDS011;30950;53.086;21.576;2023-02-04T01:24:20;14.23;;;6.63;;
45206;SDS011;30950;53.086;21.576;2023-02-04T01:27:06;13.70;;;7.22;;
45206;SDS011;30950;53.086;21.576;2023-02-04T01:29:33;11.95;;;7.32;;
45206;SDS011;30950;53.086;21.576;2023-02-04T01:32:01;10.38;;;6.47;;
45206;SDS011;30950;53.086;21.576;2023-02-04T01:34:29;9.85;;;6.22;;
45206;SDS011;30950;53.086;21.576;2023-02-04T01:36:57;7.93;;;5.18;;
45206;SDS011;30950;53.086;21.576;2023-02-04T01:39:24;8.43;;;5.40;;
45206;SDS011;30950;53.086;21.576;2023-02-04T01:41:52;9.68;;;5.50;;
45206;SDS011;30950;53.086;21.576;2023-02-04T01:44:19;8.38;;;4.85;;
45206;SDS011;30950;53.086;21.576;2023-02-04T01:46:46;8.25;;;5.45;;
45206;SDS011;30950;53.086;21.576;2023-02-04T01:49:15;7.53;;;5.28;;
45206;SDS011;30950;53.086;21.576;2023-02-04T01:51:43;7.53;;;5.32;;
45206;SDS011;30950;53.086;21.576;2023-02-04T01:54:11;7.28;;;5.00;;
45206;SDS011;30950;53.086;21.576;2023-02-04T01:56:44;7.95;;;5.68;;
45206;SDS011;30950;53.086;21.576;2023-02-04T01:59:14;8.52;;;5.10;;
45206;SDS011;30950;53.086;21.576;2023-02-04T02:01:44;7.95;;;5.47;;
45206;SDS011;30950;53.086;21.576;2023-02-04T02:04:14;8.57;;;5.68;;
45206;SDS011;30950;53.086;21.576;2023-02-04T02:06:44;8.60;;;5.68;;
45206;SDS011;30950;53.086;21.576;2023-02-04T02:09:16;9.07;;;6.10;;
45206;SDS011;30950;53.086;21.576;2023-02-04T02:11:44;8.32;;;5.60;;
45206;SDS011;30950;53.086;21.576;2023-02-04T02:14:11;6.65;;;4.68;;
45206;SDS011;30950;53.086;21.576;2023-02-04T02:16:39;8.63;;;4.60;;
45206;SDS011;30950;53.086;21.576;2023-02-04T02:19:07;8.60;;;5.43;;
45206;SDS011;30950;53.086;21.576;2023-02-04T02:26:57;9.63;;;5.47;;
45206;SDS011;30950;53.086;21.576;2023-02-04T02:29:27;9.25;;;5.95;;
45206;SDS011;30950;53.086;21.576;2023-02-04T02:31:55;11.05;;;6.13;;
45206;SDS011;30950;53.086;21.576;2023-02-04T02:34:25;8.73;;;5.85;;
45206;SDS011;30950;53.086;21.576;2023-02-04T02:36:54;8.35;;;4.82;;
45206;SDS011;30950;53.086;21.576;2023-02-04T02:39:22;9.20;;;5.40;;
45206;SDS011;30950;53.086;21.576;2023-02-04T02:41:51;7.07;;;4.78;;
45206;SDS011;30950;53.086;21.576;2023-02-04T02:44:19;8.98;;;5.05;;
45206;SDS011;30950;53.086;21.576;2023-02-04T02:46:46;9.65;;;4.65;;
45206;SDS011;30950;53.086;21.576;2023-02-04T02:49:15;10.73;;;5.05;;
45206;SDS011;30950;53.086;21.576;2023-02-04T02:51:46;8.98;;;4.50;;
45206;SDS011;30950;53.086;21.576;2023-02-04T02:54:21;10.40;;;5.28;;
45206;SDS011;30950;53.086;21.576;2023-02-04T02:56:57;8.82;;;5.15;;
45206;SDS011;30950;53.086;21.576;2023-02-04T02:59:25;7.38;;;4.38;;
45206;SDS011;30950;53.086;21.576;2023-02-04T03:01:54;6.97;;;5.15;;
45206;SDS011;30950;53.086;21.576;2023-02-04T03:04:28;8.98;;;4.90;;
45206;SDS011;30950;53.086;21.576;2023-02-04T03:06:59;9.93;;;5.05;;
45206;SDS011;30950;53.086;21.576;2023-02-04T03:09:27;9.80;;;5.55;;
45206;SDS011;30950;53.086;21.576;2023-02-04T03:11:55;6.97;;;5.38;;
45206;SDS011;30950;53.086;21.576;2023-02-04T03:14:23;7.07;;;4.70;;
45206;SDS011;30950;53.086;21.576;2023-02-04T03:16:52;7.22;;;4.45;;
45206;SDS011;30950;53.086;21.576;2023-02-04T03:19:22;8.85;;;5.53;;
45206;SDS011;30950;53.086;21.576;2023-02-04T03:21:51;8.50;;;4.70;;
45206;SDS011;30950;53.086;21.576;2023-02-04T03:24:21;9.63;;;5.30;;
45206;SDS011;30950;53.086;21.576;2023-02-04T03:26:49;9.20;;;4.93;;
45206;SDS011;30950;53.086;21.576;2023-02-04T03:29:17;9.05;;;5.28;;
45206;SDS011;30950;53.086;21.576;2023-02-04T03:31:44;8.98;;;4.50;;
45206;SDS011;30950;53.086;21.576;2023-02-04T03:34:11;7.82;;;4.45;;
45206;SDS011;30950;53.086;21.576;2023-02-04T03:36:39;8.68;;;4.70;;
45206;SDS011;30950;53.086;21.576;2023-02-04T03:39:06;9.20;;;4.88;;
45206;SDS011;30950;53.086;21.576;2023-02-04T03:41:33;7.38;;;4.68;;
45206;SDS011;30950;53.086;21.576;2023-02-04T03:44:01;9.32;;;4.20;;
45206;SDS011;30950;53.086;21.576;2023-02-04T03:46:28;7.30;;;4.50;;
45206;SDS011;30950;53.086;21.576;2023-02-04T03:48:56;8.38;;;4.75;;
45206;SDS011;30950;53.086;21.576;2023-02-04T03:51:23;10.13;;;5.38;;
45206;SDS011;30950;53.086;21.576;2023-02-04T03:53:50;7.22;;;4.63;;
45206;SDS011;30950;53.086;21.576;2023-02-04T03:56:18;7.68;;;4.25;;
45206;SDS011;30950;53.086;21.576;2023-02-04T03:58:45;8.35;;;5.05;;
45206;SDS011;30950;53.086;21.576;2023-02-04T04:01:12;8.80;;;4.80;;
45206;SDS011;30950;53.086;21.576;2023-02-04T04:03:40;9.43;;;4.90;;
45206;SDS011;30950;53.086;21.576;2023-02-04T04:06:07;7.82;;;5.45;;
45206;SDS011;30950;53.086;21.576;2023-02-04T04:08:36;11.73;;;5.50;;
45206;SDS011;30950;53.086;21.576;2023-02-04T04:11:04;8.27;;;5.22;;
45206;SDS011;30950;53.086;21.576;2023-02-04T04:13:32;11.43;;;6.40;;
45206;SDS011;30950;53.086;21.576;2023-02-04T04:15:59;8.10;;;5.57;;
45206;SDS011;30950;53.086;21.576;2023-02-04T04:18:26;9.43;;;5.63;;
45206;SDS011;30950;53.086;21.576;2023-02-04T04:20:54;10.90;;;5.70;;
45206;SDS011;30950;53.086;21.576;2023-02-04T04:23:21;14.15;;;5.70;;
45206;SDS011;30950;53.086;21.576;2023-02-04T04:25:48;8.15;;;4.43;;
45206;SDS011;30950;53.086;21.576;2023-02-04T04:28:16;7.43;;;5.07;;
45206;SDS011;30950;53.086;21.576;2023-02-04T04:30:43;9.93;;;5.90;;
45206;SDS011;30950;53.086;21.576;2023-02-04T04:33:11;8.38;;;5.38;;
45206;SDS011;30950;53.086;21.576;2023-02-04T04:35:38;7.97;;;5.05;;
45206;SDS011;30950;53.086;21.576;2023-02-04T04:38:06;9.48;;;5.40;;
45206;SDS011;30950;53.086;21.576;2023-02-04T04:40:33;11.55;;;5.50;;
45206;SDS011;30950;53.086;21.576;2023-02-04T04:43:01;10.05;;;5.03;;
45206;SDS011;30950;53.086;21.576;2023-02-04T04:45:28;9.82;;;4.13;;
45206;SDS011;30950;53.086;21.576;2023-02-04T04:47:56;6.85;;;4.72;;
45206;SDS011;30950;53.086;21.576;2023-02-04T04:50:23;6.18;;;3.70;;
45206;SDS011;30950;53.086;21.576;2023-02-04T04:52:51;9.73;;;3.63;;
45206;SDS011;30950;53.086;21.576;2023-02-04T04:55:18;7.50;;;3.60;;
45206;SDS011;30950;53.086;21.576;2023-02-04T04:57:46;8.30;;;4.10;;
45206;SDS011;30950;53.086;21.576;2023-02-04T05:00:14;7.32;;;3.17;;
45206;SDS011;30950;53.086;21.576;2023-02-04T05:02:44;5.40;;;3.10;;
45206;SDS011;30950;53.086;21.576;2023-02-04T05:05:11;4.55;;;2.78;;
45206;SDS011;30950;53.086;21.576;2023-02-04T05:07:39;6.18;;;2.78;;
45206;SDS011;30950;53.086;21.576;2023-02-04T05:10:06;6.30;;;3.40;;
45206;SDS011;30950;53.086;21.576;2023-02-04T05:12:34;7.18;;;3.13;;
45206;SDS011;30950;53.086;21.576;2023-02-04T05:15:01;9.27;;;3.33;;
45206;SDS011;30950;53.086;21.576;2023-02-04T05:17:29;6.55;;;3.22;;
45206;SDS011;30950;53.086;21.576;2023-02-04T05:19:56;6.57;;;2.88;;
45206;SDS011;30950;53.086;21.576;2023-02-04T05:22:24;6.55;;;2.78;;
45206;SDS011;30950;53.086;21.576;2023-02-04T05:24:51;4.75;;;2.80;;
45206;SDS011;30950;53.086;21.576;2023-02-04T05:27:18;6.95;;;3.15;;
45206;SDS011;30950;53.086;21.576;2023-02-04T05:29:46;6.50;;;3.17;;
45206;SDS011;30950;53.086;21.576;2023-02-04T05:32:13;4.25;;;2.75;;
45206;SDS011;30950;53.086;21.576;2023-02-04T05:34:40;6.35;;;3.30;;
45206;SDS011;30950;53.086;21.576;2023-02-04T05:37:08;5.35;;;2.70;;
45206;SDS011;30950;53.086;21.576;2023-02-04T05:39:35;6.28;;;3.33;;
45206;SDS011;30950;53.086;21.576;2023-02-04T05:42:03;9.05;;;3.25;;
45206;SDS011;30950;53.086;21.576;2023-02-04T05:44:30;5.68;;;2.72;;
45206;SDS011;30950;53.086;21.576;2023-02-04T05:46:57;5.68;;;3.25;;
45206;SDS011;30950;53.086;21.576;2023-02-04T05:49:24;5.68;;;2.88;;
45206;SDS011;30950;53.086;21.576;2023-02-04T05:51:52;6.65;;;3.42;;
45206;SDS011;30950;53.086;21.576;2023-02-04T05:54:19;7.22;;;3.58;;
45206;SDS011;30950;53.086;21.576;2023-02-04T05:56:47;4.30;;;2.50;;
45206;SDS011;30950;53.086;21.576;2023-02-04T05:59:14;4.15;;;2.70;;
45206;SDS011;30950;53.086;21.576;2023-02-04T06:01:42;6.20;;;2.90;;
45206;SDS011;30950;53.086;21.576;2023-02-04T06:04:09;6.07;;;2.83;;
45206;SDS011;30950;53.086;21.576;2023-02-04T06:06:37;6.35;;;3.10;;
45206;SDS011;30950;53.086;21.576;2023-02-04T06:09:04;9.00;;;3.58;;
45206;SDS011;30950;53.086;21.576;2023-02-04T06:11:32;8.52;;;3.03;;
45206;SDS011;30950;53.086;21.576;2023-02-04T06:13:59;6.20;;;3.30;;
45206;SDS011;30950;53.086;21.576;2023-02-04T06:16:27;6.47;;;3.72;;
45206;SDS011;30950;53.086;21.576;2023-02-04T06:18:54;6.10;;;2.80;;
45206;SDS011;30950;53.086;21.576;2023-02-04T06:21:21;5.60;;;2.40;;
45206;SDS011;30950;53.086;21.576;2023-02-04T06:23:49;5.85;;;3.08;;
45206;SDS011;30950;53.086;21.576;2023-02-04T06:26:16;6.88;;;3.53;;
45206;SDS011;30950;53.086;21.576;2023-02-04T06:28:43;9.45;;;3.75;;
45206;SDS011;30950;53.086;21.576;2023-02-04T06:31:11;8.38;;;3.72;;
45206;SDS011;30950;53.086;21.576;2023-02-04T06:33:38;6.38;;;3.53;;
45206;SDS011;30950;53.086;21.576;2023-02-04T06:36:06;10.80;;;4.63;;
45206;SDS011;30950;53.086;21.576;2023-02-04T06:38:33;11.18;;;4.05;;
45206;SDS011;30950;53.086;21.576;2023-02-04T06:41:01;8.52;;;3.85;;
45206;SDS011;30950;53.086;21.576;2023-02-04T06:43:28;8.10;;;3.60;;
45206;SDS011;30950;53.086;21.576;2023-02-04T06:45:55;7.20;;;3.58;;
45206;SDS011;30950;53.086;21.576;2023-02-04T06:48:23;7.93;;;4.28;;
45206;SDS011;30950;53.086;21.576;2023-02-04T06:50:50;7.47;;;3.50;;
45206;SDS011;30950;53.086;21.576;2023-02-04T06:53:17;9.30;;;3.55;;
45206;SDS011;30950;53.086;21.576;2023-02-04T06:55:45;7.25;;;3.38;;
45206;SDS011;30950;53.086;21.576;2023-02-04T06:58:12;7.97;;;4.15;;
45206;SDS011;30950;53.086;21.576;2023-02-04T07:00:40;7.38;;;3.13;;
45206;SDS011;30950;53.086;21.576;2023-02-04T07:03:07;5.55;;;3.45;;
45206;SDS011;30950;53.086;21.576;2023-02-04T07:05:35;7.60;;;3.80;;
45206;SDS011;30950;53.086;21.576;2023-02-04T07:08:02;8.27;;;4.10;;
45206;SDS011;30950;53.086;21.576;2023-02-04T07:10:29;5.15;;;3.17;;
45206;SDS011;30950;53.086;21.576;2023-02-04T07:12:58;7.10;;;3.60;;
45206;SDS011;30950;53.086;21.576;2023-02-04T07:15:26;19.73;;;10.73;;
45206;SDS011;30950;53.086;21.576;2023-02-04T07:17:53;18.80;;;10.48;;
45206;SDS011;30950;53.086;21.576;2023-02-04T07:20:21;6.00;;;3.20;;
45206;SDS011;30950;53.086;21.576;2023-02-04T07:22:48;7.97;;;4.78;;
45206;SDS011;30950;53.086;21.576;2023-02-04T07:25:15;6.38;;;3.63;;
45206;SDS011;30950;53.086;21.576;2023-02-04T07:27:43;5.38;;;2.88;;
45206;SDS011;30950;53.086;21.576;2023-02-04T07:30:11;4.75;;;2.45;;
45206;SDS011;30950;53.086;21.576;2023-02-04T07:32:39;9.25;;;3.15;;
45206;SDS011;30950;53.086;21.576;2023-02-04T07:35:06;7.47;;;3.70;;
45206;SDS011;30950;53.086;21.576;2023-02-04T07:37:34;5.72;;;2.95;;
45206;SDS011;30950;53.086;21.576;2023-02-04T07:40:01;9.18;;;3.20;;
45206;SDS011;30950;53.086;21.576;2023-02-04T07:42:29;9.25;;;3.70;;
45206;SDS011;30950;53.086;21.576;2023-02-04T07:45:05;7.45;;;2.95;;
45206;SDS011;30950;53.086;21.576;2023-02-04T07:47:32;5.28;;;2.72;;
45206;SDS011;30950;53.086;21.576;2023-02-04T07:50:00;7.00;;;2.40;;
45206;SDS011;30950;53.086;21.576;2023-02-04T07:52:27;5.45;;;2.63;;
45206;SDS011;30950;53.086;21.576;2023-02-04T07:54:54;4.95;;;2.08;;
45206;SDS011;30950;53.086;21.576;2023-02-04T07:57:21;7.25;;;3.03;;
45206;SDS011;30950;53.086;21.576;2023-02-04T07:59:49;8.18;;;3.60;;
45206;SDS011;30950;53.086;21.576;2023-02-04T08:02:17;8.88;;;3.60;;
45206;SDS011;30950;53.086;21.576;2023-02-04T08:04:44;5.97;;;3.40;;
45206;SDS011;30950;53.086;21.576;2023-02-04T08:07:12;5.43;;;2.60;;
45206;SDS011;30950;53.086;21.576;2023-02-04T08:09:39;4.53;;;2.63;;
45206;SDS011;30950;53.086;21.576;2023-02-04T08:12:06;5.78;;;2.90;;
45206;SDS011;30950;53.086;21.576;2023-02-04T08:14:34;9.07;;;4.43;;
45206;SDS011;30950;53.086;21.576;2023-02-04T08:17:02;11.60;;;4.70;;
45206;SDS011;30950;53.086;21.576;2023-02-04T08:19:31;11.07;;;4.18;;
45206;SDS011;30950;53.086;21.576;2023-02-04T08:21:58;13.32;;;6.68;;
45206;SDS011;30950;53.086;21.576;2023-02-04T08:24:25;6.80;;;2.78;;
45206;SDS011;30950;53.086;21.576;2023-02-04T08:26:53;5.85;;;3.33;;
45206;SDS011;30950;53.086;21.576;2023-02-04T08:29:20;4.47;;;2.88;;
45206;SDS011;30950;53.086;21.576;2023-02-04T08:31:47;13.68;;;5.20;;
45206;SDS011;30950;53.086;21.576;2023-02-04T08:34:15;5.57;;;2.28;;
45206;SDS011;30950;53.086;21.576;2023-02-04T08:36:42;7.53;;;3.78;;
45206;SDS011;30950;53.086;21.576;2023-02-04T08:39:10;5.07;;;2.78;;
45206;SDS011;30950;53.086;21.576;2023-02-04T08:41:40;6.25;;;2.70;;
45206;SDS011;30950;53.086;21.576;2023-02-04T08:44:07;5.55;;;2.67;;
45206;SDS011;30950;53.086;21.576;2023-02-04T08:46:35;5.63;;;2.67;;
45206;SDS011;30950;53.086;21.576;2023-02-04T08:49:02;3.53;;;2.10;;
45206;SDS011;30950;53.086;21.576;2023-02-04T08:51:29;3.30;;;2.15;;
45206;SDS011;30950;53.086;21.576;2023-02-04T08:53:57;6.90;;;2.92;;
45206;SDS011;30950;53.086;21.576;2023-02-04T08:56:24;7.05;;;3.05;;
45206;SDS011;30950;53.086;21.576;2023-02-04T08:58:52;5.85;;;2.97;;
45206;SDS011;30950;53.086;21.576;2023-02-04T09:01:19;7.65;;;2.70;;
45206;SDS011;30950;53.086;21.576;2023-02-04T09:03:46;3.20;;;2.10;;
45206;SDS011;30950;53.086;21.576;2023-02-04T09:06:14;6.03;;;3.20;;
45206;SDS011;30950;53.086;21.576;2023-02-04T09:08:41;7.80;;;4.32;;
45206;SDS011;30950;53.086;21.576;2023-02-04T09:11:08;5.68;;;2.40;;
45206;SDS011;30950;53.086;21.576;2023-02-04T09:13:38;7.53;;;3.92;;
45206;SDS011;30950;53.086;21.576;2023-02-04T09:16:05;7.25;;;3.20;;
45206;SDS011;30950;53.086;21.576;2023-02-04T09:18:33;5.32;;;3.17;;
45206;SDS011;30950;53.086;21.576;2023-02-04T09:21:01;5.95;;;3.05;;
45206;SDS011;30950;53.086;21.576;2023-02-04T09:23:29;6.05;;;2.97;;
45206;SDS011;30950;53.086;21.576;2023-02-04T09:25:56;6.03;;;3.55;;
45206;SDS011;30950;53.086;21.576;2023-02-04T09:28:24;7.13;;;3.25;;
45206;SDS011;30950;53.086;21.576;2023-02-04T09:30:51;9.07;;;4.53;;
45206;SDS011;30950;53.086;21.576;2023-02-04T09:33:19;3.95;;;2.03;;
45206;SDS011;30950;53.086;21.576;2023-02-04T09:35:46;5.47;;;3.20;;
45206;SDS011;30950;53.086;21.576;2023-02-04T09:38:13;8.10;;;4.22;;
45206;SDS011;30950;53.086;21.576;2023-02-04T09:40:42;7.25;;;3.22;;
45206;SDS011;30950;53.086;21.576;2023-02-04T09:43:14;9.73;;;3.72;;
45206;SDS011;30950;53.086;21.576;2023-02-04T09:45:51;7.85;;;3.20;;
45206;SDS011;30950;53.086;21.576;2023-02-04T09:48:20;4.20;;;2.15;;
45206;SDS011;30950;53.086;21.576;2023-02-04T09:50:49;4.68;;;2.63;;
45206;SDS011;30950;53.086;21.576;2023-02-04T09:53:18;7.65;;;3.60;;
45206;SDS011;30950;53.086;21.576;2023-02-04T09:55:48;8.85;;;3.42;;
45206;SDS011;30950;53.086;21.576;2023-02-04T09:58:18;5.00;;;2.72;;
45206;SDS011;30950;53.086;21.576;2023-02-04T10:03:39;6.65;;;2.08;;
45206;SDS011;30950;53.086;21.576;2023-02-04T10:06:16;2.80;;;1.90;;
45206;SDS011;30950;53.086;21.576;2023-02-04T10:08:46;8.35;;;3.72;;
45206;SDS011;30950;53.086;21.576;2023-02-04T10:11:15;4.22;;;2.28;;
45206;SDS011;30950;53.086;21.576;2023-02-04T10:13:47;4.10;;;2.40;;
45206;SDS011;30950;53.086;21.576;2023-02-04T10:16:27;10.10;;;3.63;;
45206;SDS011;30950;53.086;21.576;2023-02-04T10:19:06;4.90;;;2.22;;
45206;SDS011;30950;53.086;21.576;2023-02-04T10:21:39;7.85;;;3.22;;
45206;SDS011;30950;53.086;21.576;2023-02-04T10:24:12;9.40;;;4.05;;
45206;SDS011;30950;53.086;21.576;2023-02-04T10:26:42;4.43;;;2.63;;
45206;SDS011;30950;53.086;21.576;2023-02-04T10:29:17;3.22;;;2.17;;
45206;SDS011;30950;53.086;21.576;2023-02-04T10:31:47;5.15;;;2.88;;
45206;SDS011;30950;53.086;21.576;2023-02-04T10:36:52;5.15;;;2.60;;
45206;SDS011;30950;53.086;21.576;2023-02-04T10:39:26;4.43;;;2.47;;
45206;SDS011;30950;53.086;21.576;2023-02-04T10:41:56;9.48;;;3.45;;
45206;SDS011;30950;53.086;21.576;2023-02-04T10:47:14;5.65;;;2.75;;
45206;SDS011;30950;53.086;21.576;2023-02-04T10:49:51;7.32;;;3.53;;
45206;SDS011;30950;53.086;21.576;2023-02-04T10:52:19;6.13;;;3.47;;
45206;SDS011;30950;53.086;21.576;2023-02-04T10:54:50;6.25;;;2.47;;
45206;SDS011;30950;53.086;21.576;2023-02-04T10:57:27;7.30;;;2.35;;
45206;SDS011;30950;53.086;21.576;2023-02-04T10:59:57;5.22;;;3.00;;
45206;SDS011;30950;53.086;21.576;2023-02-04T11:02:37;7.22;;;3.05;;
45206;SDS011;30950;53.086;21.576;2023-02-04T11:05:10;13.20;;;4.22;;
45206;SDS011;30950;53.086;21.576;2023-02-04T11:07:43;5.18;;;2.78;;
45206;SDS011;30950;53.086;21.576;2023-02-04T11:10:13;4.00;;;2.40;;
45206;SDS011;30950;53.086;21.576;2023-02-04T11:18:55;6.60;;;2.83;;
45206;SDS011;30950;53.086;21.576;2023-02-04T11:39:56;5.35;;;2.40;;
45206;SDS011;30950;53.086;21.576;2023-02-04T11:45:12;5.53;;;2.83;;
45206;SDS011;30950;53.086;21.576;2023-02-04T11:47:40;6.80;;;2.83;;
45206;SDS011;30950;53.086;21.576;2023-02-04T11:52:47;5.13;;;2.45;;
45206;SDS011;30950;53.086;21.576;2023-02-04T11:55:14;7.40;;;2.40;;
45206;SDS011;30950;53.086;21.576;2023-02-04T11:57:42;6.32;;;2.40;;
45206;SDS011;30950;53.086;21.576;2023-02-04T12:00:14;4.43;;;2.10;;
45206;SDS011;30950;53.086;21.576;2023-02-04T12:02:47;2.83;;;2.05;;
45206;SDS011;30950;53.086;21.576;2023-02-04T12:05:38;5.35;;;2.78;;
45206;SDS011;30950;53.086;21.576;2023-02-04T12:08:10;4.93;;;2.55;;
45206;SDS011;30950;53.086;21.576;2023-02-04T12:13:29;5.30;;;2.20;;
45206;SDS011;30950;53.086;21.576;2023-02-04T12:15:59;4.95;;;2.78;;
45206;SDS011;30950;53.086;21.576;2023-02-04T12:18:28;6.10;;;3.17;;
45206;SDS011;30950;53.086;21.576;2023-02-04T12:20:57;5.40;;;2.33;;
45206;SDS011;30950;53.086;21.576;2023-02-04T12:23:26;6.13;;;2.65;;
45206;SDS011;30950;53.086;21.576;2023-02-04T12:25:55;3.30;;;1.88;;
45206;SDS011;30950;53.086;21.576;2023-02-04T12:28:22;3.65;;;2.00;;
45206;SDS011;30950;53.086;21.576;2023-02-04T12:30:50;3.90;;;2.33;;
45206;SDS011;30950;53.086;21.576;2023-02-04T12:33:18;7.13;;;2.83;;
45206;SDS011;30950;53.086;21.576;2023-02-04T12:35:45;4.30;;;2.55;;
45206;SDS011;30950;53.086;21.576;2023-02-04T12:38:13;4.88;;;2.67;;
45206;SDS011;30950;53.086;21.576;2023-02-04T12:40:40;4.30;;;2.30;;
45206;SDS011;30950;53.086;21.576;2023-02-04T12:43:07;4.00;;;2.20;;
45206;SDS011;30950;53.086;21.576;2023-02-04T12:45:35;4.95;;;2.38;;
45206;SDS011;30950;53.086;21.576;2023-02-04T12:48:03;8.38;;;2.38;;
45206;SDS011;30950;53.086;21.576;2023-02-04T12:50:31;3.67;;;1.80;;
45206;SDS011;30950;53.086;21.576;2023-02-04T12:52:58;4.50;;;2.30;;
45206;SDS011;30950;53.086;21.576;2023-02-04T12:55:26;4.65;;;2.60;;
45206;SDS011;30950;53.086;21.576;2023-02-04T12:57:55;4.10;;;2.13;;
45206;SDS011;30950;53.086;21.576;2023-02-04T13:00:22;2.22;;;1.60;;
45206;SDS011;30950;53.086;21.576;2023-02-04T13:02:50;7.05;;;2.45;;
45206;SDS011;30950;53.086;21.576;2023-02-04T13:05:17;3.05;;;2.08;;
45206;SDS011;30950;53.086;21.576;2023-02-04T13:07:45;7.88;;;2.83;;
45206;SDS011;30950;53.086;21.576;2023-02-04T13:10:12;6.15;;;3.03;;
45206;SDS011;30950;53.086;21.576;2023-02-04T13:12:40;4.35;;;2.47;;
45206;SDS011;30950;53.086;21.576;2023-02-04T13:15:07;6.47;;;2.30;;
45206;SDS011;30950;53.086;21.576;2023-02-04T13:17:35;4.78;;;2.45;;
45206;SDS011;30950;53.086;21.576;2023-02-04T13:20:03;7.22;;;2.42;;
45206;SDS011;30950;53.086;21.576;2023-02-04T13:22:31;4.57;;;2.60;;
45206;SDS011;30950;53.086;21.576;2023-02-04T13:24:58;4.80;;;2.60;;
45206;SDS011;30950;53.086;21.576;2023-02-04T13:27:28;3.45;;;2.30;;
45206;SDS011;30950;53.086;21.576;2023-02-04T13:29:57;4.00;;;2.40;;
45206;SDS011;30950;53.086;21.576;2023-02-04T13:32:24;2.65;;;1.77;;
45206;SDS011;30950;53.086;21.576;2023-02-04T13:34:52;6.95;;;3.55;;
45206;SDS011;30950;53.086;21.576;2023-02-04T13:37:19;4.85;;;2.50;;
45206;SDS011;30950;53.086;21.576;2023-02-04T13:39:46;7.97;;;3.88;;
45206;SDS011;30950;53.086;21.576;2023-02-04T13:42:14;5.68;;;2.75;;
45206;SDS011;30950;53.086;21.576;2023-02-04T13:44:41;7.00;;;3.28;;
45206;SDS011;30950;53.086;21.576;2023-02-04T13:47:09;4.05;;;2.33;;
45206;SDS011;30950;53.086;21.576;2023-02-04T13:49:36;6.10;;;2.80;;
45206;SDS011;30950;53.086;21.576;2023-02-04T13:52:03;5.05;;;2.28;;
45206;SDS011;30950;53.086;21.576;2023-02-04T13:54:31;3.55;;;2.05;;
45206;SDS011;30950;53.086;21.576;2023-02-04T13:56:58;5.20;;;2.70;;
45206;SDS011;30950;53.086;21.576;2023-02-04T13:59:25;3.67;;;2.30;;
45206;SDS011;30950;53.086;21.576;2023-02-04T14:01:53;4.72;;;2.53;;
45206;SDS011;30950;53.086;21.576;2023-02-04T14:04:20;5.00;;;3.30;;
45206;SDS011;30950;53.086;21.576;2023-02-04T14:06:47;4.50;;;2.65;;
45206;SDS011;30950;53.086;21.576;2023-02-04T14:09:15;4.50;;;2.30;;
45206;SDS011;30950;53.086;21.576;2023-02-04T14:11:42;5.13;;;2.55;;
45206;SDS011;30950;53.086;21.576;2023-02-04T14:14:09;5.80;;;3.13;;
45206;SDS011;30950;53.086;21.576;2023-02-04T14:16:37;7.15;;;2.88;;
45206;SDS011;30950;53.086;21.576;2023-02-04T14:19:05;6.30;;;3.03;;
45206;SDS011;30950;53.086;21.576;2023-02-04T14:21:33;5.78;;;3.30;;
45206;SDS011;30950;53.086;21.576;2023-02-04T14:24:00;6.57;;;3.60;;
45206;SDS011;30950;53.086;21.576;2023-02-04T14:26:27;6.05;;;3.40;;
45206;SDS011;30950;53.086;21.576;2023-02-04T14:28:55;4.75;;;2.22;;
45206;SDS011;30950;53.086;21.576;2023-02-04T14:31:22;4.18;;;2.72;;
45206;SDS011;30950;53.086;21.576;2023-02-04T14:33:49;5.20;;;2.50;;
45206;SDS011;30950;53.086;21.576;2023-02-04T14:36:17;5.65;;;2.88;;
45206;SDS011;30950;53.086;21.576;2023-02-04T14:38:44;5.60;;;2.70;;
45206;SDS011;30950;53.086;21.576;2023-02-04T14:41:12;10.40;;;4.35;;
45206;SDS011;30950;53.086;21.576;2023-02-04T14:43:41;11.40;;;4.38;;
45206;SDS011;30950;53.086;21.576;2023-02-04T14:46:09;10.45;;;5.13;;
45206;SDS011;30950;53.086;21.576;2023-02-04T14:48:36;12.93;;;5.47;;
45206;SDS011;30950;53.086;21.576;2023-02-04T14:51:04;11.75;;;5.07;;
45206;SDS011;30950;53.086;21.576;2023-02-04T14:53:31;9.65;;;5.18;;
45206;SDS011;30950;53.086;21.576;2023-02-04T14:55:59;13.60;;;6.40;;
45206;SDS011;30950;53.086;21.576;2023-02-04T14:58:26;8.48;;;4.45;;
45206;SDS011;30950;53.086;21.576;2023-02-04T15:00:53;12.73;;;5.03;;
45206;SDS011;30950;53.086;21.576;2023-02-04T15:03:21;10.82;;;4.90;;
45206;SDS011;30950;53.086;21.576;2023-02-04T15:05:49;6.95;;;4.43;;
45206;SDS011;30950;53.086;21.576;2023-02-04T15:08:16;5.95;;;3.03;;
45206;SDS011;30950;53.086;21.576;2023-02-04T15:10:43;6.40;;;3.08;;
45206;SDS011;30950;53.086;21.576;2023-02-04T15:13:11;7.25;;;3.42;;
45206;SDS011;30950;53.086;21.576;2023-02-04T15:15:38;5.80;;;3.15;;
45206;SDS011;30950;53.086;21.576;2023-02-04T15:18:05;8.27;;;4.55;;
45206;SDS011;30950;53.086;21.576;2023-02-04T15:20:33;8.82;;;3.92;;
45206;SDS011;30950;53.086;21.576;2023-02-04T15:23:01;7.40;;;3.88;;
45206;SDS011;30950;53.086;21.576;2023-02-04T15:25:28;6.88;;;3.70;;